sensor_id;sensor_type;location;lat;lon;timestamp;P1;durP1;ratioP1;P2;durP2;ratioP2
18217;SDS011;9234;49.344;11.120;2022-09-30T00:01:43;7.80;;;6.77;;
18217;SDS011;9234;49.344;11.120;2022-09-30T00:04:13;11.17;;;6.63;;
18217;SDS011;9234;49.344;11.120;2022-09-30T00:06:44;7.47;;;5.97;;
18217;SDS011;9234;49.344;11.120;2022-09-30T00:09:12;9.47;;;5.83;;
18217;SDS011;9234;49.344;11.120;2022-09-30T00:11:41;10.87;;;7.23;;
18217;SDS011;9234;49.344;11.120;2022-09-30T00:14:12;7.97;;;6.07;;
18217;SDS011;9234;49.344;11.120;2022-09-30T00:16:43;6.93;;;6.03;;
18217;SDS011;9234;49.344;11.120;2022-09-30T00:19:13;11.33;;;6.30;;
18217;SDS011;9234;49.344;11.120;2022-09-30T00:21:41;9.00;;;6.43;;
18217;SDS011;9234;49.344;11.120;2022-09-30T00:24:10;7.97;;;7.17;;
18217;SDS011;9234;49.344;11.120;2022-09-30T00:26:38;10.20;;;6.20;;
18217;SDS011;9234;49.344;11.120;2022-09-30T00:29:06;11.87;;;6.67;;
18217;SDS011;9234;49.344;11.120;2022-09-30T00:31:37;8.93;;;6.00;;
18217;SDS011;9234;49.344;11.120;2022-09-30T00:34:06;8.90;;;5.50;;
18217;SDS011;9234;49.344;11.120;2022-09-30T00:36:38;7.80;;;5.27;;
18217;SDS011;9234;49.344;11.120;2022-09-30T00:39:11;6.23;;;4.60;;
18217;SDS011;9234;49.344;11.120;2022-09-30T00:41:41;7.27;;;5.67;;
18217;SDS011;9234;49.344;11.120;2022-09-30T00:47:35;9.47;;;4.63;;
18217;SDS011;9234;49.344;11.120;2022-09-30T00:53:11;7.27;;;4.83;;
18217;SDS011;9234;49.344;11.120;2022-09-30T00:55:45;7.73;;;4.90;;
18217;SDS011;9234;49.344;11.120;2022-09-30T00:58:22;10.73;;;4.27;;
18217;SDS011;9234;49.344;11.120;2022-09-30T01:00:57;5.23;;;4.67;;
18217;SDS011;9234;49.344;11.120;2022-09-30T01:03:30;8.83;;;4.43;;
18217;SDS011;9234;49.344;11.120;2022-09-30T01:06:01;5.57;;;4.70;;
18217;SDS011;9234;49.344;11.120;2022-09-30T01:08:30;5.50;;;4.40;;
18217;SDS011;9234;49.344;11.120;2022-09-30T01:11:02;8.83;;;4.80;;
18217;SDS011;9234;49.344;11.120;2022-09-30T01:13:33;7.40;;;6.03;;
18217;SDS011;9234;49.344;11.120;2022-09-30T01:16:09;7.67;;;5.97;;
18217;SDS011;9234;49.344;11.120;2022-09-30T01:19:01;15.90;;;8.33;;
18217;SDS011;9234;49.344;11.120;2022-09-30T01:24:51;23.70;;;8.93;;
18217;SDS011;9234;49.344;11.120;2022-09-30T01:27:46;14.97;;;6.20;;
18217;SDS011;9234;49.344;11.120;2022-09-30T01:30:47;11.20;;;5.83;;
18217;SDS011;9234;49.344;11.120;2022-09-30T01:33:40;16.77;;;6.33;;
18217;SDS011;9234;49.344;11.120;2022-09-30T01:36:23;24.00;;;6.33;;
18217;SDS011;9234;49.344;11.120;2022-09-30T01:39:11;15.57;;;5.87;;
18217;SDS011;9234;49.344;11.120;2022-09-30T01:41:54;17.97;;;5.67;;
18217;SDS011;9234;49.344;11.120;2022-09-30T01:44:36;25.87;;;9.03;;
18217;SDS011;9234;49.344;11.120;2022-09-30T01:47:18;21.37;;;8.10;;
18217;SDS011;9234;49.344;11.120;2022-09-30T01:49:55;23.83;;;8.20;;
18217;SDS011;9234;49.344;11.120;2022-09-30T01:52:31;25.57;;;7.67;;
18217;SDS011;9234;49.344;11.120;2022-09-30T01:55:07;25.87;;;7.93;;
18217;SDS011;9234;49.344;11.120;2022-09-30T01:57:46;33.63;;;9.70;;
18217;SDS011;9234;49.344;11.120;2022-09-30T02:00:22;29.00;;;10.07;;
18217;SDS011;9234;49.344;11.120;2022-09-30T02:02:55;23.40;;;9.53;;
18217;SDS011;9234;49.344;11.120;2022-09-30T02:05:29;17.97;;;7.63;;
18217;SDS011;9234;49.344;11.120;2022-09-30T02:08:06;16.50;;;6.77;;
18217;SDS011;9234;49.344;11.120;2022-09-30T02:10:43;27.10;;;7.00;;
18217;SDS011;9234;49.344;11.120;2022-09-30T02:13:19;15.23;;;6.53;;
18217;SDS011;9234;49.344;11.120;2022-09-30T02:16:02;16.20;;;6.60;;
18217;SDS011;9234;49.344;11.120;2022-09-30T02:18:40;17.67;;;7.27;;
18217;SDS011;9234;49.344;11.120;2022-09-30T02:21:14;20.73;;;7.50;;
18217;SDS011;9234;49.344;11.120;2022-09-30T02:23:49;29.60;;;6.70;;
18217;SDS011;9234;49.344;11.120;2022-09-30T02:26:27;31.50;;;7.27;;
18217;SDS011;9234;49.344;11.120;2022-09-30T02:29:00;25.83;;;7.10;;
18217;SDS011;9234;49.344;11.120;2022-09-30T02:31:36;21.93;;;7.80;;
18217;SDS011;9234;49.344;11.120;2022-09-30T02:34:11;26.27;;;8.17;;
18217;SDS011;9234;49.344;11.120;2022-09-30T02:36:47;24.60;;;7.13;;
18217;SDS011;9234;49.344;11.120;2022-09-30T02:39:24;18.20;;;7.83;;
18217;SDS011;9234;49.344;11.120;2022-09-30T02:42:01;24.83;;;9.07;;
18217;SDS011;9234;49.344;11.120;2022-09-30T02:44:37;26.40;;;8.03;;
18217;SDS011;9234;49.344;11.120;2022-09-30T02:47:09;36.60;;;8.17;;
18217;SDS011;9234;49.344;11.120;2022-09-30T02:49:46;26.87;;;8.40;;
18217;SDS011;9234;49.344;11.120;2022-09-30T02:52:21;47.77;;;10.30;;
18217;SDS011;9234;49.344;11.120;2022-09-30T02:55:00;28.03;;;8.90;;
18217;SDS011;9234;49.344;11.120;2022-09-30T02:57:42;34.33;;;8.80;;
18217;SDS011;9234;49.344;11.120;2022-09-30T03:00:23;21.57;;;9.03;;
18217;SDS011;9234;49.344;11.120;2022-09-30T03:02:53;30.20;;;7.87;;
18217;SDS011;9234;49.344;11.120;2022-09-30T03:05:31;33.50;;;8.40;;
18217;SDS011;9234;49.344;11.120;2022-09-30T03:08:00;34.30;;;9.50;;
18217;SDS011;9234;49.344;11.120;2022-09-30T03:10:29;14.43;;;6.73;;
18217;SDS011;9234;49.344;11.120;2022-09-30T03:13:04;11.57;;;6.63;;
18217;SDS011;9234;49.344;11.120;2022-09-30T03:15:57;26.77;;;7.87;;
18217;SDS011;9234;49.344;11.120;2022-09-30T03:18:44;36.27;;;8.97;;
18217;SDS011;9234;49.344;11.120;2022-09-30T03:21:36;40.50;;;9.10;;
18217;SDS011;9234;49.344;11.120;2022-09-30T03:24:35;34.53;;;7.30;;
18217;SDS011;9234;49.344;11.120;2022-09-30T03:27:26;28.23;;;8.00;;
18217;SDS011;9234;49.344;11.120;2022-09-30T03:30:06;22.17;;;8.17;;
18217;SDS011;9234;49.344;11.120;2022-09-30T03:32:48;25.23;;;7.70;;
18217;SDS011;9234;49.344;11.120;2022-09-30T03:35:40;38.83;;;9.30;;
18217;SDS011;9234;49.344;11.120;2022-09-30T03:38:19;32.03;;;7.77;;
18217;SDS011;9234;49.344;11.120;2022-09-30T03:41:05;28.60;;;7.70;;
18217;SDS011;9234;49.344;11.120;2022-09-30T03:43:43;31.57;;;7.47;;
18217;SDS011;9234;49.344;11.120;2022-09-30T03:46:18;30.43;;;8.10;;
18217;SDS011;9234;49.344;11.120;2022-09-30T03:48:53;33.97;;;7.70;;
18217;SDS011;9234;49.344;11.120;2022-09-30T03:51:26;22.50;;;7.77;;
18217;SDS011;9234;49.344;11.120;2022-09-30T03:53:58;18.70;;;8.10;;
18217;SDS011;9234;49.344;11.120;2022-09-30T03:56:26;38.03;;;7.93;;
18217;SDS011;9234;49.344;11.120;2022-09-30T03:58:57;34.80;;;8.40;;
18217;SDS011;9234;49.344;11.120;2022-09-30T04:01:25;19.77;;;6.67;;
18217;SDS011;9234;49.344;11.120;2022-09-30T04:03:53;41.73;;;8.50;;
18217;SDS011;9234;49.344;11.120;2022-09-30T04:06:22;47.27;;;8.30;;
18217;SDS011;9234;49.344;11.120;2022-09-30T04:08:51;35.63;;;8.87;;
18217;SDS011;9234;49.344;11.120;2022-09-30T04:11:21;38.63;;;8.60;;
18217;SDS011;9234;49.344;11.120;2022-09-30T04:13:49;31.40;;;8.00;;
18217;SDS011;9234;49.344;11.120;2022-09-30T04:16:17;29.60;;;7.33;;
18217;SDS011;9234;49.344;11.120;2022-09-30T04:18:45;34.40;;;8.40;;
18217;SDS011;9234;49.344;11.120;2022-09-30T04:21:14;34.70;;;7.97;;
18217;SDS011;9234;49.344;11.120;2022-09-30T04:23:42;43.00;;;8.90;;
18217;SDS011;9234;49.344;11.120;2022-09-30T04:26:11;17.53;;;7.70;;
18217;SDS011;9234;49.344;11.120;2022-09-30T04:28:43;29.10;;;7.37;;
18217;SDS011;9234;49.344;11.120;2022-09-30T04:31:12;47.43;;;7.90;;
18217;SDS011;9234;49.344;11.120;2022-09-30T04:33:43;23.83;;;6.47;;
18217;SDS011;9234;49.344;11.120;2022-09-30T04:36:11;37.77;;;7.20;;
18217;SDS011;9234;49.344;11.120;2022-09-30T04:38:39;25.60;;;7.17;;
18217;SDS011;9234;49.344;11.120;2022-09-30T04:41:08;25.33;;;7.37;;
18217;SDS011;9234;49.344;11.120;2022-09-30T04:43:44;29.77;;;8.93;;
18217;SDS011;9234;49.344;11.120;2022-09-30T04:46:14;12.87;;;6.83;;
18217;SDS011;9234;49.344;11.120;2022-09-30T04:48:45;20.23;;;6.57;;
18217;SDS011;9234;49.344;11.120;2022-09-30T04:51:14;31.60;;;6.83;;
18217;SDS011;9234;49.344;11.120;2022-09-30T04:53:45;23.83;;;7.17;;
18217;SDS011;9234;49.344;11.120;2022-09-30T04:56:14;34.63;;;6.33;;
18217;SDS011;9234;49.344;11.120;2022-09-30T04:58:44;38.67;;;7.93;;
18217;SDS011;9234;49.344;11.120;2022-09-30T05:01:13;21.60;;;6.37;;
18217;SDS011;9234;49.344;11.120;2022-09-30T05:03:44;20.43;;;5.83;;
18217;SDS011;9234;49.344;11.120;2022-09-30T05:06:12;24.00;;;7.07;;
18217;SDS011;9234;49.344;11.120;2022-09-30T05:08:40;37.00;;;6.70;;
18217;SDS011;9234;49.344;11.120;2022-09-30T05:11:13;81.07;;;11.07;;
18217;SDS011;9234;49.344;11.120;2022-09-30T05:13:45;35.70;;;7.23;;
18217;SDS011;9234;49.344;11.120;2022-09-30T05:16:16;24.87;;;6.77;;
18217;SDS011;9234;49.344;11.120;2022-09-30T05:18:44;20.03;;;7.00;;
18217;SDS011;9234;49.344;11.120;2022-09-30T05:21:13;45.63;;;8.40;;
18217;SDS011;9234;49.344;11.120;2022-09-30T05:23:45;64.77;;;10.37;;
18217;SDS011;9234;49.344;11.120;2022-09-30T05:26:13;121.27;;;12.80;;
18217;SDS011;9234;49.344;11.120;2022-09-30T05:28:42;101.40;;;12.80;;
18217;SDS011;9234;49.344;11.120;2022-09-30T05:31:11;32.70;;;7.83;;
18217;SDS011;9234;49.344;11.120;2022-09-30T05:33:40;75.10;;;11.20;;
18217;SDS011;9234;49.344;11.120;2022-09-30T05:36:08;56.37;;;9.40;;
18217;SDS011;9234;49.344;11.120;2022-09-30T05:38:41;47.37;;;8.73;;
18217;SDS011;9234;49.344;11.120;2022-09-30T05:41:10;33.40;;;7.90;;
18217;SDS011;9234;49.344;11.120;2022-09-30T05:43:41;26.43;;;6.97;;
18217;SDS011;9234;49.344;11.120;2022-09-30T05:46:14;77.27;;;10.90;;
18217;SDS011;9234;49.344;11.120;2022-09-30T05:48:43;94.10;;;11.10;;
18217;SDS011;9234;49.344;11.120;2022-09-30T05:51:15;54.33;;;8.13;;
18217;SDS011;9234;49.344;11.120;2022-09-30T05:53:43;48.03;;;8.50;;
18217;SDS011;9234;49.344;11.120;2022-09-30T05:56:11;24.03;;;7.27;;
18217;SDS011;9234;49.344;11.120;2022-09-30T05:58:41;67.47;;;10.73;;
18217;SDS011;9234;49.344;11.120;2022-09-30T06:01:10;75.30;;;10.70;;
18217;SDS011;9234;49.344;11.120;2022-09-30T06:03:42;71.40;;;10.17;;
18217;SDS011;9234;49.344;11.120;2022-09-30T06:06:12;77.47;;;10.60;;
18217;SDS011;9234;49.344;11.120;2022-09-30T06:08:41;48.60;;;8.57;;
18217;SDS011;9234;49.344;11.120;2022-09-30T06:11:10;123.60;;;14.07;;
18217;SDS011;9234;49.344;11.120;2022-09-30T06:13:41;90.73;;;12.53;;
18217;SDS011;9234;49.344;11.120;2022-09-30T06:16:13;30.97;;;7.00;;
18217;SDS011;9234;49.344;11.120;2022-09-30T06:18:43;44.67;;;8.20;;
18217;SDS011;9234;49.344;11.120;2022-09-30T06:21:13;70.90;;;10.17;;
18217;SDS011;9234;49.344;11.120;2022-09-30T06:23:42;102.33;;;11.30;;
18217;SDS011;9234;49.344;11.120;2022-09-30T06:26:11;95.43;;;11.63;;
18217;SDS011;9234;49.344;11.120;2022-09-30T06:28:41;113.67;;;16.57;;
18217;SDS011;9234;49.344;11.120;2022-09-30T06:31:09;130.17;;;13.50;;
18217;SDS011;9234;49.344;11.120;2022-09-30T06:33:40;120.00;;;13.50;;
18217;SDS011;9234;49.344;11.120;2022-09-30T06:36:08;203.30;;;15.97;;
18217;SDS011;9234;49.344;11.120;2022-09-30T06:38:37;140.10;;;12.40;;
18217;SDS011;9234;49.344;11.120;2022-09-30T06:41:05;93.67;;;11.43;;
18217;SDS011;9234;49.344;11.120;2022-09-30T06:43:34;83.90;;;10.77;;
18217;SDS011;9234;49.344;11.120;2022-09-30T06:46:22;103.73;;;11.33;;
18217;SDS011;9234;49.344;11.120;2022-09-30T06:48:58;91.13;;;13.23;;
18217;SDS011;9234;49.344;11.120;2022-09-30T06:51:38;189.43;;;16.70;;
18217;SDS011;9234;49.344;11.120;2022-09-30T06:54:07;120.20;;;13.27;;
18217;SDS011;9234;49.344;11.120;2022-09-30T06:56:35;96.20;;;11.80;;
18217;SDS011;9234;49.344;11.120;2022-09-30T06:59:03;35.57;;;8.73;;
18217;SDS011;9234;49.344;11.120;2022-09-30T07:01:32;42.07;;;8.40;;
18217;SDS011;9234;49.344;11.120;2022-09-30T07:04:02;53.90;;;10.07;;
18217;SDS011;9234;49.344;11.120;2022-09-30T07:06:34;110.63;;;13.20;;
18217;SDS011;9234;49.344;11.120;2022-09-30T07:09:04;40.50;;;8.30;;
18217;SDS011;9234;49.344;11.120;2022-09-30T07:11:33;31.87;;;8.07;;
18217;SDS011;9234;49.344;11.120;2022-09-30T07:14:02;77.03;;;11.80;;
18217;SDS011;9234;49.344;11.120;2022-09-30T07:16:31;73.97;;;8.97;;
18217;SDS011;9234;49.344;11.120;2022-09-30T07:19:03;133.53;;;13.80;;
18217;SDS011;9234;49.344;11.120;2022-09-30T07:21:34;91.43;;;12.07;;
18217;SDS011;9234;49.344;11.120;2022-09-30T07:24:02;145.80;;;13.30;;
18217;SDS011;9234;49.344;11.120;2022-09-30T07:26:31;90.20;;;11.67;;
18217;SDS011;9234;49.344;11.120;2022-09-30T07:28:59;32.97;;;8.37;;
18217;SDS011;9234;49.344;11.120;2022-09-30T07:31:27;70.37;;;11.03;;
18217;SDS011;9234;49.344;11.120;2022-09-30T07:33:59;75.87;;;9.97;;
18217;SDS011;9234;49.344;11.120;2022-09-30T07:36:32;48.57;;;9.83;;
18217;SDS011;9234;49.344;11.120;2022-09-30T07:39:02;97.90;;;11.53;;
18217;SDS011;9234;49.344;11.120;2022-09-30T07:41:35;13.23;;;6.97;;
18217;SDS011;9234;49.344;11.120;2022-09-30T07:44:06;69.90;;;11.33;;
18217;SDS011;9234;49.344;11.120;2022-09-30T07:46:38;77.73;;;11.27;;
18217;SDS011;9234;49.344;11.120;2022-09-30T07:49:09;36.53;;;8.73;;
18217;SDS011;9234;49.344;11.120;2022-09-30T07:51:49;52.27;;;11.03;;
18217;SDS011;9234;49.344;11.120;2022-09-30T07:54:19;59.70;;;9.70;;
18217;SDS011;9234;49.344;11.120;2022-09-30T07:56:50;69.73;;;10.10;;
18217;SDS011;9234;49.344;11.120;2022-09-30T07:59:37;20.60;;;7.73;;
18217;SDS011;9234;49.344;11.120;2022-09-30T08:02:10;25.00;;;8.27;;
18217;SDS011;9234;49.344;11.120;2022-09-30T08:04:43;28.40;;;8.43;;
18217;SDS011;9234;49.344;11.120;2022-09-30T08:07:12;13.07;;;7.50;;
18217;SDS011;9234;49.344;11.120;2022-09-30T08:09:43;37.63;;;8.90;;
18217;SDS011;9234;49.344;11.120;2022-09-30T08:12:13;26.07;;;8.33;;
18217;SDS011;9234;49.344;11.120;2022-09-30T08:14:41;11.00;;;7.23;;
18217;SDS011;9234;49.344;11.120;2022-09-30T08:17:09;37.40;;;9.27;;
18217;SDS011;9234;49.344;11.120;2022-09-30T08:19:38;21.47;;;8.60;;
18217;SDS011;9234;49.344;11.120;2022-09-30T08:22:10;42.57;;;9.17;;
18217;SDS011;9234;49.344;11.120;2022-09-30T08:24:40;25.93;;;9.53;;
18217;SDS011;9234;49.344;11.120;2022-09-30T08:27:08;45.63;;;9.77;;
18217;SDS011;9234;49.344;11.120;2022-09-30T08:29:36;39.17;;;9.80;;
18217;SDS011;9234;49.344;11.120;2022-09-30T08:32:24;30.50;;;9.50;;
18217;SDS011;9234;49.344;11.120;2022-09-30T08:34:56;21.87;;;9.27;;
18217;SDS011;9234;49.344;11.120;2022-09-30T08:37:26;33.33;;;10.20;;
18217;SDS011;9234;49.344;11.120;2022-09-30T08:39:54;14.03;;;8.60;;
18217;SDS011;9234;49.344;11.120;2022-09-30T08:42:26;12.47;;;8.23;;
18217;SDS011;9234;49.344;11.120;2022-09-30T08:45:25;18.87;;;8.37;;
18217;SDS011;9234;49.344;11.120;2022-09-30T08:48:06;11.80;;;8.63;;
18217;SDS011;9234;49.344;11.120;2022-09-30T08:50:52;15.53;;;8.47;;
18217;SDS011;9234;49.344;11.120;2022-09-30T08:53:36;13.77;;;7.88;;
18217;SDS011;9234;49.344;11.120;2022-09-30T08:56:11;12.87;;;7.87;;
18217;SDS011;9234;49.344;11.120;2022-09-30T08:58:47;10.67;;;8.43;;
18217;SDS011;9234;49.344;11.120;2022-09-30T09:01:22;14.37;;;7.40;;
18217;SDS011;9234;49.344;11.120;2022-09-30T09:03:58;19.90;;;7.47;;
18217;SDS011;9234;49.344;11.120;2022-09-30T09:06:30;10.40;;;6.90;;
18217;SDS011;9234;49.344;11.120;2022-09-30T09:09:17;12.27;;;8.20;;
18217;SDS011;9234;49.344;11.120;2022-09-30T09:12:05;9.30;;;7.47;;
18217;SDS011;9234;49.344;11.120;2022-09-30T09:14:52;9.30;;;7.67;;
18217;SDS011;9234;49.344;11.120;2022-09-30T09:17:47;8.57;;;7.50;;
18217;SDS011;9234;49.344;11.120;2022-09-30T09:20:50;8.32;;;7.50;;
18217;SDS011;9234;49.344;11.120;2022-09-30T09:23:23;8.40;;;7.57;;
18217;SDS011;9234;49.344;11.120;2022-09-30T09:25:54;8.83;;;7.97;;
18217;SDS011;9234;49.344;11.120;2022-09-30T09:28:24;11.27;;;7.53;;
18217;SDS011;9234;49.344;11.120;2022-09-30T09:31:02;8.60;;;6.90;;
18217;SDS011;9234;49.344;11.120;2022-09-30T09:33:33;8.73;;;7.82;;
18217;SDS011;9234;49.344;11.120;2022-09-30T09:36:18;10.30;;;8.13;;
18217;SDS011;9234;49.344;11.120;2022-09-30T09:39:10;9.55;;;7.85;;
18217;SDS011;9234;49.344;11.120;2022-09-30T09:42:03;9.30;;;7.40;;
18217;SDS011;9234;49.344;11.120;2022-09-30T09:44:45;9.07;;;7.70;;
18217;SDS011;9234;49.344;11.120;2022-09-30T09:47:23;8.35;;;7.47;;
18217;SDS011;9234;49.344;11.120;2022-09-30T09:49:52;10.15;;;8.02;;
18217;SDS011;9234;49.344;11.120;2022-09-30T09:52:33;9.13;;;7.90;;
18217;SDS011;9234;49.344;11.120;2022-09-30T09:55:16;10.30;;;9.05;;
18217;SDS011;9234;49.344;11.120;2022-09-30T10:00:44;10.15;;;8.88;;
18217;SDS011;9234;49.344;11.120;2022-09-30T10:03:34;10.02;;;8.65;;
18217;SDS011;9234;49.344;11.120;2022-09-30T10:06:03;10.05;;;9.05;;
18217;SDS011;9234;49.344;11.120;2022-09-30T10:08:35;9.23;;;8.32;;
18217;SDS011;9234;49.344;11.120;2022-09-30T10:11:07;8.90;;;7.78;;
18217;SDS011;9234;49.344;11.120;2022-09-30T10:13:47;8.00;;;7.30;;
18217;SDS011;9234;49.344;11.120;2022-09-30T10:16:26;8.50;;;7.65;;
18217;SDS011;9234;49.344;11.120;2022-09-30T10:18:58;8.13;;;7.32;;
18217;SDS011;9234;49.344;11.120;2022-09-30T10:21:32;11.07;;;7.35;;
18217;SDS011;9234;49.344;11.120;2022-09-30T10:24:03;8.30;;;7.50;;
18217;SDS011;9234;49.344;11.120;2022-09-30T10:26:51;8.10;;;7.40;;
18217;SDS011;9234;49.344;11.120;2022-09-30T10:29:26;7.90;;;7.18;;
18217;SDS011;9234;49.344;11.120;2022-09-30T10:31:58;9.35;;;8.45;;
18217;SDS011;9234;49.344;11.120;2022-09-30T10:34:33;8.85;;;7.95;;
18217;SDS011;9234;49.344;11.120;2022-09-30T10:37:07;9.18;;;8.38;;
18217;SDS011;9234;49.344;11.120;2022-09-30T10:39:41;9.40;;;8.48;;
18217;SDS011;9234;49.344;11.120;2022-09-30T10:42:18;10.35;;;8.73;;
18217;SDS011;9234;49.344;11.120;2022-09-30T10:44:53;9.23;;;8.43;;
18217;SDS011;9234;49.344;11.120;2022-09-30T10:47:25;11.00;;;9.02;;
18217;SDS011;9234;49.344;11.120;2022-09-30T10:50:02;9.85;;;8.88;;
18217;SDS011;9234;49.344;11.120;2022-09-30T10:52:35;9.10;;;7.07;;
18217;SDS011;9234;49.344;11.120;2022-09-30T10:55:24;10.20;;;7.55;;
18217;SDS011;9234;49.344;11.120;2022-09-30T10:58:00;9.30;;;8.40;;
18217;SDS011;9234;49.344;11.120;2022-09-30T11:00:53;8.95;;;8.05;;
18217;SDS011;9234;49.344;11.120;2022-09-30T11:03:33;9.65;;;8.73;;
18217;SDS011;9234;49.344;11.120;2022-09-30T11:06:11;8.25;;;7.47;;
18217;SDS011;9234;49.344;11.120;2022-09-30T11:08:43;10.25;;;8.98;;
18217;SDS011;9234;49.344;11.120;2022-09-30T11:11:23;8.65;;;7.60;;
18217;SDS011;9234;49.344;11.120;2022-09-30T11:13:56;9.38;;;7.35;;
18217;SDS011;9234;49.344;11.120;2022-09-30T11:16:32;8.57;;;7.78;;
18217;SDS011;9234;49.344;11.120;2022-09-30T11:19:16;8.40;;;7.60;;
18217;SDS011;9234;49.344;11.120;2022-09-30T11:21:54;8.38;;;7.57;;
18217;SDS011;9234;49.344;11.120;2022-09-30T11:24:31;9.23;;;7.63;;
18217;SDS011;9234;49.344;11.120;2022-09-30T11:27:08;9.38;;;8.27;;
18217;SDS011;9234;49.344;11.120;2022-09-30T11:29:51;9.23;;;7.60;;
18217;SDS011;9234;49.344;11.120;2022-09-30T11:32:32;8.82;;;8.07;;
18217;SDS011;9234;49.344;11.120;2022-09-30T11:38:17;6.85;;;6.25;;
18217;SDS011;9234;49.344;11.120;2022-09-30T11:41:07;7.65;;;6.60;;
18217;SDS011;9234;49.344;11.120;2022-09-30T11:43:46;7.20;;;6.50;;
18217;SDS011;9234;49.344;11.120;2022-09-30T11:46:41;5.95;;;5.22;;
18217;SDS011;9234;49.344;11.120;2022-09-30T11:49:40;5.85;;;5.32;;
18217;SDS011;9234;49.344;11.120;2022-09-30T11:52:33;6.20;;;5.60;;
18217;SDS011;9234;49.344;11.120;2022-09-30T11:55:21;4.82;;;4.38;;
18217;SDS011;9234;49.344;11.120;2022-09-30T11:58:08;3.90;;;3.55;;
18217;SDS011;9234;49.344;11.120;2022-09-30T12:01:05;3.20;;;2.67;;
18217;SDS011;9234;49.344;11.120;2022-09-30T12:03:47;5.00;;;3.65;;
18217;SDS011;9234;49.344;11.120;2022-09-30T12:06:28;4.45;;;3.40;;
18217;SDS011;9234;49.344;11.120;2022-09-30T12:09:04;3.97;;;3.08;;
18217;SDS011;9234;49.344;11.120;2022-09-30T12:11:45;4.03;;;3.58;;
18217;SDS011;9234;49.344;11.120;2022-09-30T12:14:22;4.00;;;3.60;;
18217;SDS011;9234;49.344;11.120;2022-09-30T12:16:59;3.05;;;2.75;;
18217;SDS011;9234;49.344;11.120;2022-09-30T12:19:39;6.82;;;2.72;;
18217;SDS011;9234;49.344;11.120;2022-09-30T12:22:14;4.00;;;2.50;;
18217;SDS011;9234;49.344;11.120;2022-09-30T12:24:48;4.40;;;4.00;;
18217;SDS011;9234;49.344;11.120;2022-09-30T12:27:17;13.40;;;12.30;;
18217;SDS011;9234;49.344;11.120;2022-09-30T12:29:54;4.18;;;3.50;;
18217;SDS011;9234;49.344;11.120;2022-09-30T12:36:03;3.13;;;2.83;;
18217;SDS011;9234;49.344;11.120;2022-09-30T12:39:10;5.72;;;2.50;;
18217;SDS011;9234;49.344;11.120;2022-09-30T12:42:33;3.40;;;2.13;;
18217;SDS011;9234;49.344;11.120;2022-09-30T12:48:42;3.58;;;2.42;;
18217;SDS011;9234;49.344;11.120;2022-09-30T12:51:24;3.05;;;2.80;;
18217;SDS011;9234;49.344;11.120;2022-09-30T12:53:59;2.83;;;1.98;;
18217;SDS011;9234;49.344;11.120;2022-09-30T12:56:31;2.58;;;1.85;;
18217;SDS011;9234;49.344;11.120;2022-09-30T12:59:04;2.45;;;2.03;;
18217;SDS011;9234;49.344;11.120;2022-09-30T13:01:35;2.92;;;1.88;;
18217;SDS011;9234;49.344;11.120;2022-09-30T13:04:14;2.38;;;2.08;;
18217;SDS011;9234;49.344;11.120;2022-09-30T13:07:11;3.45;;;3.15;;
18217;SDS011;9234;49.344;11.120;2022-09-30T13:09:54;1.98;;;1.60;;
18217;SDS011;9234;49.344;11.120;2022-09-30T13:13:14;1.77;;;1.60;;
18217;SDS011;9234;49.344;11.120;2022-09-30T13:15:51;2.13;;;1.60;;
18217;SDS011;9234;49.344;11.120;2022-09-30T13:21:27;2.97;;;1.95;;
18217;SDS011;9234;49.344;11.120;2022-09-30T13:23:57;3.00;;;2.20;;
18217;SDS011;9234;49.344;11.120;2022-09-30T13:26:34;2.92;;;2.45;;
18217;SDS011;9234;49.344;11.120;2022-09-30T13:32:06;3.55;;;3.00;;
18217;SDS011;9234;49.344;11.120;2022-09-30T13:34:52;3.50;;;2.70;;
18217;SDS011;9234;49.344;11.120;2022-09-30T13:37:29;3.00;;;2.47;;
18217;SDS011;9234;49.344;11.120;2022-09-30T13:40:01;2.55;;;2.33;;
18217;SDS011;9234;49.344;11.120;2022-09-30T13:42:40;2.58;;;2.00;;
18217;SDS011;9234;49.344;11.120;2022-09-30T13:45:20;4.75;;;1.98;;
18217;SDS011;9234;49.344;11.120;2022-09-30T13:48:03;3.00;;;2.20;;
18217;SDS011;9234;49.344;11.120;2022-09-30T13:50:43;3.55;;;2.50;;
18217;SDS011;9234;49.344;11.120;2022-09-30T13:53:20;2.35;;;2.03;;
18217;SDS011;9234;49.344;11.120;2022-09-30T13:55:55;2.72;;;2.40;;
18217;SDS011;9234;49.344;11.120;2022-09-30T13:58:41;3.63;;;2.22;;
18217;SDS011;9234;49.344;11.120;2022-09-30T14:01:45;3.65;;;2.03;;
18217;SDS011;9234;49.344;11.120;2022-09-30T14:04:39;3.17;;;1.60;;
18217;SDS011;9234;49.344;11.120;2022-09-30T14:07:24;2.55;;;1.92;;
18217;SDS011;9234;49.344;11.120;2022-09-30T14:10:11;3.35;;;1.70;;
18217;SDS011;9234;49.344;11.120;2022-09-30T14:12:58;1.90;;;1.30;;
18217;SDS011;9234;49.344;11.120;2022-09-30T14:19:20;3.08;;;1.35;;
18217;SDS011;9234;49.344;11.120;2022-09-30T14:22:21;1.60;;;1.50;;
18217;SDS011;9234;49.344;11.120;2022-09-30T14:24:52;3.70;;;1.30;;
18217;SDS011;9234;49.344;11.120;2022-09-30T14:27:27;2.58;;;1.33;;
18217;SDS011;9234;49.344;11.120;2022-09-30T14:30:19;2.17;;;1.30;;
18217;SDS011;9234;49.344;11.120;2022-09-30T14:32:52;3.40;;;1.58;;
18217;SDS011;9234;49.344;11.120;2022-09-30T14:35:24;3.17;;;1.77;;
18217;SDS011;9234;49.344;11.120;2022-09-30T14:37:57;2.50;;;1.67;;
18217;SDS011;9234;49.344;11.120;2022-09-30T14:40:30;4.03;;;1.55;;
18217;SDS011;9234;49.344;11.120;2022-09-30T14:43:03;1.77;;;1.48;;
18217;SDS011;9234;49.344;11.120;2022-09-30T14:45:36;1.83;;;1.63;;
18217;SDS011;9234;49.344;11.120;2022-09-30T14:48:09;3.42;;;1.67;;
18217;SDS011;9234;49.344;11.120;2022-09-30T14:50:46;2.80;;;1.70;;
18217;SDS011;9234;49.344;11.120;2022-09-30T14:53:26;2.47;;;2.10;;
18217;SDS011;9234;49.344;11.120;2022-09-30T14:55:56;2.42;;;1.83;;
18217;SDS011;9234;49.344;11.120;2022-09-30T14:58:27;5.75;;;1.90;;
18217;SDS011;9234;49.344;11.120;2022-09-30T15:01:00;1.63;;;1.40;;
18217;SDS011;9234;49.344;11.120;2022-09-30T15:03:34;3.55;;;1.80;;
18217;SDS011;9234;49.344;11.120;2022-09-30T15:06:15;5.10;;;1.98;;
18217;SDS011;9234;49.344;11.120;2022-09-30T15:08:47;1.58;;;1.35;;
18217;SDS011;9234;49.344;11.120;2022-09-30T15:11:18;1.90;;;1.52;;
18217;SDS011;9234;49.344;11.120;2022-09-30T15:13:57;2.00;;;1.38;;
18217;SDS011;9234;49.344;11.120;2022-09-30T15:16:30;2.08;;;1.40;;
18217;SDS011;9234;49.344;11.120;2022-09-30T15:19:01;3.40;;;1.45;;
18217;SDS011;9234;49.344;11.120;2022-09-30T15:21:29;2.10;;;1.85;;
18217;SDS011;9234;49.344;11.120;2022-09-30T15:24:01;2.35;;;1.30;;
18217;SDS011;9234;49.344;11.120;2022-09-30T15:26:32;2.17;;;1.55;;
18217;SDS011;9234;49.344;11.120;2022-09-30T15:29:01;1.27;;;1.17;;
18217;SDS011;9234;49.344;11.120;2022-09-30T15:31:30;2.38;;;1.38;;
18217;SDS011;9234;49.344;11.120;2022-09-30T15:34:00;3.70;;;1.95;;
18217;SDS011;9234;49.344;11.120;2022-09-30T15:36:32;2.55;;;1.63;;
18217;SDS011;9234;49.344;11.120;2022-09-30T15:39:04;3.00;;;1.23;;
18217;SDS011;9234;49.344;11.120;2022-09-30T15:41:45;3.33;;;1.48;;
18217;SDS011;9234;49.344;11.120;2022-09-30T15:44:16;1.90;;;1.80;;
18217;SDS011;9234;49.344;11.120;2022-09-30T15:47:03;2.90;;;2.30;;
18217;SDS011;9234;49.344;11.120;2022-09-30T15:49:43;3.13;;;1.92;;
18217;SDS011;9234;49.344;11.120;2022-09-30T15:52:28;2.10;;;1.48;;
18217;SDS011;9234;49.344;11.120;2022-09-30T16:03:50;1.60;;;1.38;;
18217;SDS011;9234;49.344;11.120;2022-09-30T16:06:26;2.33;;;1.52;;
18217;SDS011;9234;49.344;11.120;2022-09-30T16:09:01;2.20;;;1.20;;
18217;SDS011;9234;49.344;11.120;2022-09-30T16:11:35;1.40;;;1.27;;